Time;durP1;ratioP1;P1;durP2;ratioP2;P2;SDS_P1;SDS_P2;PMS_P1;PMS_P2;Temp;Humidity;BMP_temperature;BMP_pressure;BME280_temperature;BME280_humidity;BME280_pressure;Samples;Min_cycle;Max_cycle;Signal;HPM_P1;HPM_P2
2023/12/14 00:02:05;;;;;;;14.18;7.10;;;6.80;99.90;;;;;;4945118;29;20019;-91
2023/12/14 00:04:34;;;;;;;13.57;7.82;;;6.80;99.90;;;;;;4937077;29;20115;-93
2023/12/14 00:06:59;;;;;;;11.27;6.63;;;6.80;99.90;;;;;;4930219;29;20142;-90
2023/12/14 00:09:25;;;;;;;14.98;8.63;;;6.80;99.90;;;;;;4923131;29;20058;-90
2023/12/14 00:11:51;;;;;;;16.15;8.50;;;6.80;99.90;;;;;;4923512;29;20020;-91
2023/12/14 00:14:16;;;;;;;17.50;10.38;;;6.80;99.90;;;;;;4922847;29;20031;-91
2023/12/14 00:19:28;;;;;;;19.92;10.48;;;6.80;99.90;;;;;;4919044;29;20036;-90
2023/12/14 00:21:54;;;;;;;20.75;11.40;;;6.80;99.90;;;;;;4921350;29;20046;-91
2023/12/14 00:24:23;;;;;;;19.33;10.20;;;6.80;99.90;;;;;;4917903;29;20028;-90
2023/12/14 00:26:49;;;;;;;17.33;10.93;;;6.80;99.90;;;;;;4922639;29;20043;-90
2023/12/14 00:29:14;;;;;;;23.42;12.40;;;6.70;99.90;;;;;;4921687;29;20020;-90
2023/12/14 00:31:40;;;;;;;18.77;9.77;;;6.70;99.90;;;;;;4920745;29;20028;-92
2023/12/14 00:34:06;;;;;;;20.88;11.52;;;6.60;99.90;;;;;;4918920;29;20028;-90
2023/12/14 00:36:32;;;;;;;22.42;11.10;;;6.60;99.90;;;;;;4920495;29;20032;-90
2023/12/14 00:38:58;;;;;;;24.38;11.13;;;6.70;99.90;;;;;;4920697;29;20106;-90
2023/12/14 00:41:24;;;;;;;24.20;11.82;;;6.70;99.90;;;;;;4920942;29;20047;-91
2023/12/14 00:43:49;;;;;;;20.27;12.35;;;6.70;99.90;;;;;;4922728;29;20035;-91
2023/12/14 00:46:15;;;;;;;26.20;12.70;;;6.70;99.90;;;;;;4921825;29;20364;-90
2023/12/14 00:48:41;;;;;;;28.75;13.73;;;6.80;99.90;;;;;;4921403;29;20028;-91
2023/12/14 00:51:09;;;;;;;25.70;12.23;;;6.70;99.90;;;;;;4920859;29;20072;-91
2023/12/14 00:53:35;;;;;;;31.55;14.57;;;6.70;99.90;;;;;;4918588;29;20021;-91
2023/12/14 00:56:01;;;;;;;28.77;14.55;;;6.80;99.90;;;;;;4915753;29;20016;-91
2023/12/14 00:58:26;;;;;;;33.03;17.73;;;6.80;99.90;;;;;;4928961;29;20032;-91
2023/12/14 01:00:54;;;;;;;34.78;16.48;;;6.80;99.90;;;;;;4922500;29;20028;-92
2023/12/14 01:03:20;;;;;;;34.60;17.65;;;6.80;99.90;;;;;;4922778;29;20028;-90
2023/12/14 01:05:46;;;;;;;37.30;18.05;;;6.80;99.90;;;;;;4925339;29;20053;-91
2023/12/14 01:08:12;;;;;;;36.80;19.15;;;6.80;99.90;;;;;;4921996;29;20443;-91
2023/12/14 01:10:40;;;;;;;30.17;16.40;;;6.80;99.90;;;;;;4914067;29;20021;-92
2023/12/14 01:13:12;;;;;;;34.35;16.90;;;6.80;99.90;;;;;;4919816;29;20063;-90
2023/12/14 01:15:40;;;;;;;35.30;16.35;;;6.80;99.90;;;;;;4920254;29;20020;-90
2023/12/14 01:18:06;;;;;;;;;;;6.80;99.90;;;;;;4919434;29;20032;-91
2023/12/14 01:20:31;;;;;;;29.98;15.80;;;6.80;99.90;;;;;;4919604;29;19914;-91
2023/12/14 01:22:57;;;;;;;31.33;15.98;;;6.90;99.90;;;;;;4920634;29;20044;-91
2023/12/14 01:25:23;;;;;;;33.10;16.20;;;6.90;99.90;;;;;;4920692;29;20495;-90
2023/12/14 01:27:49;;;;;;;32.65;16.02;;;6.80;99.90;;;;;;4920272;29;20037;-90
2023/12/14 01:30:15;;;;;;;31.17;15.82;;;6.90;99.90;;;;;;4920779;29;20027;-92
2023/12/14 01:32:40;;;;;;;31.00;14.63;;;6.90;99.90;;;;;;4919100;29;20088;-91
2023/12/14 01:35:07;;;;;;;29.55;15.85;;;6.90;99.90;;;;;;4919171;29;20021;-91
2023/12/14 01:37:32;;;;;;;27.23;14.13;;;6.90;99.90;;;;;;4934549;29;20096;-91
2023/12/14 01:40:10;;;;;;;29.05;13.93;;;6.90;99.90;;;;;;4922363;29;20032;-91
2023/12/14 01:42:36;;;;;;;24.08;12.80;;;6.90;99.90;;;;;;4925194;29;20031;-91
2023/12/14 01:45:10;;;;;;;24.67;12.27;;;6.90;99.90;;;;;;4925652;29;20024;-92
2023/12/14 01:47:36;;;;;;;28.17;14.05;;;7.00;99.90;;;;;;4925376;29;20035;-90
2023/12/14 01:50:02;;;;;;;26.75;12.95;;;7.00;99.90;;;;;;4929455;29;20066;-92
2023/12/14 01:52:27;;;;;;;29.67;13.98;;;7.00;99.90;;;;;;4926843;29;20039;-90
2023/12/14 01:54:55;;;;;;;24.33;12.80;;;7.00;99.90;;;;;;4924362;29;20514;-90
2023/12/14 01:57:32;;;;;;;29.50;13.63;;;7.00;99.90;;;;;;4923351;29;20028;-92
2023/12/14 01:59:58;;;;;;;29.10;14.85;;;7.00;99.90;;;;;;4924412;29;20028;-91
2023/12/14 02:02:24;;;;;;;27.00;14.23;;;7.00;99.90;;;;;;4939848;29;20028;-90
2023/12/14 02:04:50;;;;;;;33.30;13.02;;;7.00;99.90;;;;;;4918233;29;20107;-90
2023/12/14 02:07:18;;;;;;;28.13;14.18;;;7.00;99.90;;;;;;4925296;29;20032;-91
2023/12/14 02:09:44;;;;;;;27.08;13.55;;;7.00;99.90;;;;;;4924680;29;20036;-91
2023/12/14 02:12:10;;;;;;;27.92;14.00;;;7.00;99.90;;;;;;4924686;29;20031;-91
2023/12/14 02:14:36;;;;;;;31.67;15.73;;;7.00;99.90;;;;;;4924796;29;20291;-91
2023/12/14 02:17:05;;;;;;;28.00;14.75;;;7.00;99.90;;;;;;4922958;29;20028;-92
2023/12/14 02:19:30;;;;;;;28.35;13.93;;;7.00;99.90;;;;;;4923948;29;20546;-90
2023/12/14 02:21:56;;;;;;;30.30;15.90;;;7.00;99.90;;;;;;4922891;29;20036;-91
2023/12/14 02:24:22;;;;;;;27.38;14.38;;;7.00;99.90;;;;;;4922874;29;20091;-91
2023/12/14 02:26:50;;;;;;;29.38;15.00;;;7.00;99.90;;;;;;4922974;29;20103;-91
2023/12/14 02:29:16;;;;;;;26.58;12.98;;;7.00;99.90;;;;;;4922946;29;20111;-90
2023/12/14 02:31:42;;;;;;;30.98;14.85;;;7.00;99.90;;;;;;4922438;29;20056;-90
2023/12/14 02:34:08;;;;;;;29.08;13.95;;;7.10;99.90;;;;;;4915539;29;20032;-90
2023/12/14 02:36:34;;;;;;;30.27;15.88;;;7.00;99.90;;;;;;4923637;29;20028;-90
2023/12/14 02:38:59;;;;;;;32.05;15.02;;;7.00;99.90;;;;;;4924630;29;20032;-90
2023/12/14 02:41:28;;;;;;;29.45;15.30;;;7.00;99.90;;;;;;4925859;29;20414;-92
2023/12/14 02:43:54;;;;;;;30.17;13.57;;;7.00;99.90;;;;;;4924672;29;20028;-91
2023/12/14 02:46:23;;;;;;;34.45;17.25;;;7.00;99.90;;;;;;4924594;29;20391;-91
2023/12/14 02:48:56;;;;;;;32.00;15.38;;;7.00;99.90;;;;;;4924225;29;20061;-91
2023/12/14 02:51:22;;;;;;;32.22;14.98;;;7.10;99.90;;;;;;4925002;29;20089;-91
2023/12/14 02:53:51;;;;;;;33.08;16.25;;;7.00;99.90;;;;;;4924618;29;20056;-93
2023/12/14 02:56:17;;;;;;;29.20;14.65;;;7.00;99.90;;;;;;4923183;29;20029;-91
2023/12/14 02:58:42;;;;;;;31.10;15.80;;;7.00;99.90;;;;;;4920133;29;20028;-91
2023/12/14 03:01:08;;;;;;;36.53;16.70;;;7.00;99.90;;;;;;4923917;29;20055;-92
2023/12/14 03:03:39;;;;;;;36.75;15.93;;;7.00;99.90;;;;;;4924141;29;20028;-92
2023/12/14 03:06:05;;;;;;;29.65;14.73;;;7.10;99.90;;;;;;4923728;29;20024;-92
2023/12/14 03:08:31;;;;;;;33.75;15.38;;;7.00;99.90;;;;;;4924206;29;20111;-91
2023/12/14 03:10:57;;;;;;;36.47;16.20;;;7.10;99.90;;;;;;4934841;29;20048;-92
2023/12/14 03:13:23;;;;;;;37.53;18.40;;;7.10;99.90;;;;;;4905132;29;20204;-91
2023/12/14 03:15:49;;;;;;;38.35;15.88;;;7.10;99.90;;;;;;4908153;29;20024;-91
2023/12/14 03:18:17;;;;;;;42.10;16.35;;;7.00;99.90;;;;;;4922435;29;20077;-92
2023/12/14 03:20:43;;;;;;;44.50;19.08;;;7.00;99.90;;;;;;4922006;29;20020;-91
2023/12/14 03:23:08;;;;;;;39.15;17.00;;;7.00;99.90;;;;;;4918095;29;20047;-91
2023/12/14 03:25:34;;;;;;;37.00;16.15;;;7.10;99.90;;;;;;4920710;29;20034;-91
2023/12/14 03:28:00;;;;;;;40.22;17.05;;;7.00;99.90;;;;;;4922045;29;20024;-91
2023/12/14 03:30:26;;;;;;;47.50;21.38;;;7.10;99.90;;;;;;4922702;29;20450;-91
2023/12/14 03:32:55;;;;;;;43.58;16.88;;;7.10;99.90;;;;;;4922901;29;20027;-91
2023/12/14 03:35:21;;;;;;;41.40;17.67;;;7.10;99.90;;;;;;4924284;29;20077;-91
2023/12/14 03:37:46;;;;;;;45.55;18.23;;;7.10;99.90;;;;;;4924978;29;20043;-91
2023/12/14 03:40:12;;;;;;;38.58;15.10;;;7.20;99.90;;;;;;4923970;29;20067;-92
2023/12/14 03:42:38;;;;;;;42.35;16.90;;;7.10;99.90;;;;;;4922902;29;20024;-91
2023/12/14 03:45:10;;;;;;;39.70;17.20;;;7.10;99.90;;;;;;4923046;29;20172;-90
2023/12/14 03:47:36;;;;;;;42.45;17.40;;;7.20;99.90;;;;;;4922939;29;20033;-91
2023/12/14 03:50:01;;;;;;;40.22;16.90;;;7.10;99.90;;;;;;4922067;29;20104;-91
2023/12/14 03:52:34;;;;;;;38.05;15.52;;;7.10;99.90;;;;;;4922701;29;20047;-91
2023/12/14 03:55:00;;;;;;;39.00;17.08;;;7.10;99.90;;;;;;4923144;29;20027;-93
2023/12/14 03:57:25;;;;;;;42.75;21.02;;;7.00;99.90;;;;;;4914513;29;20427;-91
2023/12/14 03:59:51;;;;;;;41.83;18.88;;;7.10;99.90;;;;;;4924804;29;20403;-92
2023/12/14 04:02:20;;;;;;;38.63;17.60;;;7.10;99.90;;;;;;4926865;29;20083;-91
2023/12/14 04:04:47;;;;;;;40.15;16.67;;;7.10;99.90;;;;;;4921792;29;20028;-92
2023/12/14 04:07:12;;;;;;;41.80;19.13;;;7.10;99.90;;;;;;4921301;29;20028;-92
2023/12/14 04:09:38;;;;;;;40.17;18.48;;;7.10;99.90;;;;;;4922371;29;20027;-91
2023/12/14 04:12:07;;;;;;;40.30;16.45;;;7.20;99.90;;;;;;4921545;29;20131;-93
2023/12/14 04:14:32;;;;;;;40.60;17.02;;;7.10;99.90;;;;;;4922727;29;20080;-91
2023/12/14 04:16:58;;;;;;;38.50;17.15;;;7.10;99.90;;;;;;4925089;29;20110;-92
2023/12/14 04:19:24;;;;;;;39.97;16.30;;;7.10;99.90;;;;;;4920595;29;20036;-91
2023/12/14 04:21:50;;;;;;;43.10;16.63;;;7.20;99.90;;;;;;4920463;29;20531;-91
2023/12/14 04:24:15;;;;;;;41.50;17.45;;;7.20;99.90;;;;;;4921679;29;20024;-91
2023/12/14 04:26:41;;;;;;;48.15;17.75;;;7.20;99.90;;;;;;4922124;29;20671;-91
2023/12/14 04:29:07;;;;;;;40.53;16.77;;;7.20;99.90;;;;;;4919709;29;20075;-92
2023/12/14 04:31:37;;;;;;;40.30;18.48;;;7.20;99.90;;;;;;4922216;29;20475;-91
2023/12/14 04:34:03;;;;;;;44.05;18.42;;;7.20;99.90;;;;;;4920351;29;20032;-91
2023/12/14 04:36:29;;;;;;;35.63;15.98;;;7.20;99.90;;;;;;4920745;29;20100;-94
2023/12/14 04:38:55;;;;;;;46.13;18.38;;;7.20;99.90;;;;;;4920783;29;20034;-91
2023/12/14 04:41:20;;;;;;;40.60;17.77;;;7.20;99.90;;;;;;4921909;29;20028;-91
2023/12/14 04:43:52;;;;;;;39.08;16.90;;;7.20;99.90;;;;;;4924068;29;20068;-92
2023/12/14 04:46:23;;;;;;;36.83;16.35;;;7.20;99.90;;;;;;4921198;29;20032;-93
2023/12/14 04:48:51;;;;;;;39.67;16.10;;;7.20;99.90;;;;;;4922852;29;20043;-92
2023/12/14 04:51:27;;;;;;;45.03;17.98;;;7.20;99.90;;;;;;4926246;29;20025;-93
2023/12/14 04:53:56;;;;;;;43.15;16.20;;;7.20;99.90;;;;;;4911876;29;20028;-95
2023/12/14 04:56:22;;;;;;;41.00;17.10;;;7.20;99.90;;;;;;4933108;29;20020;-93
2023/12/14 04:58:51;;;;;;;41.83;18.80;;;7.20;99.90;;;;;;4929928;29;20095;-94
2023/12/14 05:01:28;;;;;;;35.80;15.73;;;7.20;99.90;;;;;;4931304;29;20032;-94
2023/12/14 05:03:55;;;;;;;44.88;17.13;;;7.20;99.90;;;;;;4917826;29;20028;-94
2023/12/14 05:06:23;;;;;;;38.22;16.13;;;7.20;99.90;;;;;;4926440;29;20083;-93
2023/12/14 05:08:52;;;;;;;43.92;16.33;;;7.20;99.90;;;;;;4928311;29;20032;-93
2023/12/14 05:11:44;;;;;;;41.58;17.23;;;7.20;99.90;;;;;;4933468;29;20071;-95
2023/12/14 05:14:16;;;;;;;43.25;16.80;;;7.20;99.90;;;;;;4932503;29;20049;-94
2023/12/14 05:17:06;;;;;;;42.78;19.73;;;7.10;99.90;;;;;;4933779;29;20052;-94
2023/12/14 05:22:34;;;;;;;37.72;16.60;;;7.10;99.90;;;;;;4923559;29;20115;-94
2023/12/14 05:25:29;;;;;;;36.80;17.60;;;7.20;99.90;;;;;;4930446;29;20053;-93
2023/12/14 05:27:54;;;;;;;42.10;17.98;;;7.10;99.90;;;;;;4933016;29;20053;-93
2023/12/14 05:30:26;;;;;;;42.00;17.05;;;7.10;99.90;;;;;;4931544;29;20040;-93
2023/12/14 05:33:15;;;;;;;35.20;16.15;;;7.10;99.90;;;;;;4920795;29;20024;-93
2023/12/14 05:35:47;;;;;;;39.15;16.17;;;7.10;99.90;;;;;;4929136;29;20035;-94
2023/12/14 05:38:12;;;;;;;39.28;16.80;;;7.10;99.90;;;;;;4927658;29;20467;-94
2023/12/14 05:40:39;;;;;;;40.67;17.15;;;7.10;99.90;;;;;;4929141;29;20036;-94
2023/12/14 05:43:07;;;;;;;38.53;16.92;;;7.10;99.90;;;;;;4933261;29;20101;-93
2023/12/14 05:45:38;;;;;;;39.92;16.30;;;7.10;99.90;;;;;;4942256;29;20020;-94
2023/12/14 05:48:06;;;;;;;37.03;17.58;;;7.10;99.90;;;;;;4942460;29;20048;-93
2023/12/14 05:50:32;;;;;;;35.30;15.43;;;7.10;99.90;;;;;;4941927;29;20020;-93
2023/12/14 05:52:58;;;;;;;37.70;16.27;;;7.10;99.90;;;;;;4941302;29;20057;-94
2023/12/14 05:55:24;;;;;;;37.78;16.83;;;7.20;99.90;;;;;;4935333;29;20075;-93
2023/12/14 05:57:50;;;;;;;34.92;16.42;;;7.20;99.90;;;;;;4926651;29;20292;-92
2023/12/14 06:00:20;;;;;;;36.45;15.60;;;7.10;99.90;;;;;;4928203;29;20028;-92
2023/12/14 06:02:49;;;;;;;35.08;14.82;;;7.10;99.90;;;;;;4928453;29;20024;-92
2023/12/14 06:05:15;;;;;;;34.75;14.93;;;7.10;99.90;;;;;;4928369;29;20059;-92
2023/12/14 06:07:41;;;;;;;37.25;16.27;;;7.10;99.90;;;;;;4918582;29;20037;-94
2023/12/14 06:10:13;;;;;;;39.15;15.07;;;7.10;99.90;;;;;;4930336;29;20028;-92
2023/12/14 06:12:41;;;;;;;35.65;15.52;;;7.10;99.90;;;;;;4927116;29;20040;-92
2023/12/14 06:15:21;;;;;;;35.78;16.20;;;7.10;99.90;;;;;;4927854;29;20028;-92
2023/12/14 06:17:49;;;;;;;32.83;15.43;;;7.10;99.90;;;;;;4925993;29;20024;-91
2023/12/14 06:20:15;;;;;;;33.63;14.10;;;7.00;99.90;;;;;;4931307;29;20052;-93
2023/12/14 06:22:44;;;;;;;32.95;14.45;;;7.10;99.90;;;;;;4939014;29;20048;-93
2023/12/14 06:25:15;;;;;;;33.72;14.43;;;7.10;99.90;;;;;;4933830;29;20056;-94
2023/12/14 06:27:52;;;;;;;30.27;13.80;;;7.10;99.90;;;;;;4938137;29;20043;-93
2023/12/14 06:30:25;;;;;;;33.67;14.18;;;7.10;99.90;;;;;;4934641;29;20023;-95
2023/12/14 06:32:54;;;;;;;27.35;13.85;;;7.10;99.90;;;;;;4927805;29;20030;-94
2023/12/14 06:35:22;;;;;;;35.17;13.85;;;7.10;99.90;;;;;;4929973;29;20020;-93
2023/12/14 06:38:01;;;;;;;35.92;15.40;;;7.10;99.90;;;;;;4932282;29;20040;-95
2023/12/14 06:40:36;;;;;;;28.13;13.50;;;7.10;99.90;;;;;;4928294;29;20028;-95
2023/12/14 06:43:05;;;;;;;28.60;12.95;;;7.10;99.90;;;;;;4950174;23;20075;-94
2023/12/14 06:45:30;;;;;;;30.00;13.40;;;7.10;99.90;;;;;;4957122;29;20020;-94
2023/12/14 06:47:56;;;;;;;28.67;13.77;;;7.10;99.90;;;;;;4945410;29;20035;-95
2023/12/14 06:50:22;;;;;;;25.40;14.05;;;7.10;99.90;;;;;;4947118;29;20027;-94
2023/12/14 06:52:47;;;;;;;29.65;13.55;;;7.00;99.90;;;;;;4952725;29;20023;-95
2023/12/14 06:55:14;;;;;;;29.65;14.32;;;7.10;99.90;;;;;;4942676;29;20583;-95
2023/12/14 06:57:43;;;;;;;30.65;13.32;;;7.00;99.90;;;;;;4944432;29;20028;-94
2023/12/14 07:00:11;;;;;;;31.92;13.02;;;7.00;99.90;;;;;;4944836;29;20024;-95
2023/12/14 07:02:36;;;;;;;28.17;12.48;;;7.00;99.90;;;;;;4950972;29;20064;-94
2023/12/14 07:05:02;;;;;;;30.35;13.73;;;7.00;99.90;;;;;;4947348;29;20031;-94
2023/12/14 07:07:28;;;;;;;32.40;14.32;;;7.10;99.90;;;;;;4942783;29;20064;-94
2023/12/14 07:09:54;;;;;;;26.35;12.77;;;7.10;99.90;;;;;;4938355;29;20043;-94
2023/12/14 07:12:19;;;;;;;31.40;13.00;;;7.10;99.90;;;;;;4949363;29;20219;-95
2023/12/14 07:14:45;;;;;;;28.23;15.00;;;7.10;99.90;;;;;;4953263;28;20035;-93
2023/12/14 07:17:17;;;;;;;34.33;16.50;;;7.00;99.90;;;;;;4942069;29;20399;-94
2023/12/14 07:19:43;;;;;;;33.33;13.43;;;7.10;99.90;;;;;;4959292;28;20008;-95
2023/12/14 07:22:08;;;;;;;30.55;14.27;;;7.00;99.90;;;;;;4955381;29;20095;-94
2023/12/14 07:24:34;;;;;;;32.25;14.35;;;7.00;99.90;;;;;;4946831;29;20036;-94
2023/12/14 07:27:00;;;;;;;31.17;14.88;;;7.00;99.90;;;;;;4939064;29;20032;-94
2023/12/14 07:29:26;;;;;;;29.08;12.68;;;7.00;99.90;;;;;;4940369;29;20030;-96
2023/12/14 07:31:52;;;;;;;25.67;12.27;;;7.00;99.90;;;;;;4946472;29;20016;-94
2023/12/14 07:34:20;;;;;;;35.33;13.95;;;7.00;99.90;;;;;;4948084;29;20060;-94
2023/12/14 07:36:46;;;;;;;30.67;13.32;;;7.00;99.90;;;;;;4945131;29;20028;-95
2023/12/14 07:39:12;;;;;;;36.03;13.73;;;7.10;99.90;;;;;;4948717;29;20074;-95
2023/12/14 07:41:38;;;;;;;30.45;13.63;;;7.10;99.90;;;;;;4951290;29;20016;-93
2023/12/14 07:44:04;;;;;;;32.35;14.48;;;7.10;99.90;;;;;;4943651;29;20039;-94
2023/12/14 07:46:30;;;;;;;31.08;14.77;;;7.10;99.90;;;;;;4940330;29;20032;-95
2023/12/14 07:48:55;;;;;;;34.78;17.17;;;7.10;99.90;;;;;;4936010;29;20032;-93
2023/12/14 07:51:21;;;;;;;33.50;15.10;;;7.10;99.90;;;;;;4937643;29;20036;-94
2023/12/14 07:53:47;;;;;;;37.63;15.50;;;7.10;99.90;;;;;;4938586;29;20027;-94
2023/12/14 07:56:12;;;;;;;33.97;14.18;;;7.10;99.90;;;;;;4946125;29;20031;-94
2023/12/14 07:58:38;;;;;;;34.90;15.77;;;7.10;99.90;;;;;;4942058;29;20035;-95
2023/12/14 08:01:04;;;;;;;33.00;14.75;;;7.10;99.90;;;;;;4941172;29;20035;-93
2023/12/14 08:03:30;;;;;;;36.60;15.75;;;7.10;99.90;;;;;;4941065;29;20035;-94
2023/12/14 08:05:55;;;;;;;38.85;16.55;;;7.20;99.90;;;;;;4954588;29;20047;-95
2023/12/14 08:08:24;;;;;;;32.78;14.52;;;7.20;99.90;;;;;;4956053;28;20070;-94
2023/12/14 08:10:50;;;;;;;31.50;13.50;;;7.20;99.90;;;;;;4955318;28;20499;-96
2023/12/14 08:13:15;;;;;;;36.63;13.73;;;7.20;99.90;;;;;;4947994;29;20039;-94
2023/12/14 08:15:41;;;;;;;37.35;19.02;;;7.20;99.90;;;;;;4937680;29;20335;-94
2023/12/14 08:18:07;;;;;;;38.53;14.65;;;7.20;99.90;;;;;;4935341;29;20092;-95
2023/12/14 08:20:39;;;;;;;31.35;13.50;;;7.20;99.90;;;;;;4944656;29;20032;-94
2023/12/14 08:23:05;;;;;;;42.97;16.63;;;7.20;99.90;;;;;;4935004;29;20521;-94
2023/12/14 08:25:30;;;;;;;35.70;15.98;;;7.20;99.90;;;;;;4930812;29;20032;-93
2023/12/14 08:27:56;;;;;;;35.28;14.95;;;7.20;99.90;;;;;;4932695;29;20067;-95
2023/12/14 08:30:25;;;;;;;42.03;17.90;;;7.20;99.90;;;;;;4947187;29;20332;-94
2023/12/14 08:32:50;;;;;;;33.78;14.93;;;7.20;99.90;;;;;;4939443;29;20602;-94
2023/12/14 08:35:16;;;;;;;43.97;20.23;;;7.20;99.90;;;;;;4937070;29;20042;-93
2023/12/14 08:37:43;;;;;;;50.22;29.55;;;7.30;99.90;;;;;;4946430;29;20031;-95
2023/12/14 08:40:09;;;;;;;48.42;25.35;;;7.30;99.90;;;;;;4942346;29;20410;-95
2023/12/14 08:42:38;;;;;;;38.60;16.08;;;7.30;99.90;;;;;;4942851;29;20039;-94
2023/12/14 08:45:04;;;;;;;38.55;14.40;;;7.30;99.90;;;;;;4948320;29;20032;-94
2023/12/14 08:47:29;;;;;;;36.03;13.85;;;7.30;99.90;;;;;;4951887;29;20031;-96
2023/12/14 08:49:55;;;;;;;37.90;13.90;;;7.40;99.90;;;;;;4950324;29;20743;-95
2023/12/14 08:52:21;;;;;;;33.13;14.40;;;7.40;99.90;;;;;;4944750;29;20023;-95
2023/12/14 08:54:46;;;;;;;36.67;15.27;;;7.50;99.90;;;;;;4943365;29;20032;-94
2023/12/14 08:57:12;;;;;;;37.28;15.10;;;7.50;99.90;;;;;;4950386;29;20027;-95
2023/12/14 08:59:38;;;;;;;31.77;14.00;;;7.60;99.90;;;;;;4939218;29;20032;-95
2023/12/14 09:02:04;;;;;;;29.83;13.05;;;7.50;99.90;;;;;;4936352;29;20051;-95
2023/12/14 09:04:36;;;;;;;38.10;12.55;;;7.60;99.90;;;;;;4949294;29;20127;-95
2023/12/14 09:07:03;;;;;;;35.80;14.95;;;7.60;99.90;;;;;;4943448;29;20035;-95
2023/12/14 09:09:29;;;;;;;33.80;13.00;;;7.60;99.90;;;;;;4950151;29;20032;-95
2023/12/14 09:11:55;;;;;;;36.90;17.08;;;7.60;99.90;;;;;;4949755;29;20099;-95
2023/12/14 09:14:20;;;;;;;29.55;13.52;;;7.60;99.90;;;;;;4950126;29;20027;-95
2023/12/14 09:16:49;;;;;;;39.22;14.60;;;7.60;99.90;;;;;;4950052;29;20079;-96
2023/12/14 09:19:15;;;;;;;32.13;12.57;;;7.60;99.90;;;;;;4948259;29;20028;-95
2023/12/14 09:21:41;;;;;;;32.33;15.07;;;7.60;99.90;;;;;;4949738;29;20090;-96
2023/12/14 09:24:06;;;;;;;36.63;14.07;;;7.60;99.90;;;;;;4950715;29;20427;-94
2023/12/14 09:26:32;;;;;;;29.15;12.77;;;7.60;99.90;;;;;;4957366;29;20027;-96
2023/12/14 09:28:57;;;;;;;28.95;13.05;;;7.70;99.90;;;;;;4944177;29;20511;-95
2023/12/14 09:31:29;;;;;;;30.77;12.38;;;7.70;99.90;;;;;;4948158;29;20028;-95
2023/12/14 09:33:55;;;;;;;29.80;12.55;;;7.70;99.90;;;;;;4949236;29;20024;-93
2023/12/14 09:36:24;;;;;;;27.30;12.25;;;7.70;99.90;;;;;;4949169;29;20038;-95
2023/12/14 09:38:49;;;;;;;33.88;12.75;;;7.70;99.90;;;;;;4948038;29;20086;-95
2023/12/14 09:41:15;;;;;;;28.15;12.80;;;7.80;99.90;;;;;;4947611;29;20032;-93
2023/12/14 09:43:41;;;;;;;25.92;12.25;;;7.80;99.90;;;;;;4949021;29;20044;-95
2023/12/14 09:46:09;;;;;;;29.10;12.55;;;7.80;99.90;;;;;;4947844;29;20030;-95
2023/12/14 09:48:37;;;;;;;31.42;12.98;;;7.80;99.90;;;;;;4948591;29;20128;-95
2023/12/14 09:51:02;;;;;;;28.92;12.85;;;7.80;99.90;;;;;;4942834;29;20020;-94
2023/12/14 09:53:31;;;;;;;31.92;12.88;;;7.80;99.90;;;;;;4936855;29;20035;-94
2023/12/14 09:55:57;;;;;;;28.65;13.32;;;7.90;99.90;;;;;;4941154;29;20015;-95
2023/12/14 09:58:23;;;;;;;24.50;10.82;;;7.90;99.90;;;;;;4934445;29;20039;-95
2023/12/14 10:00:48;;;;;;;31.58;16.52;;;7.90;99.90;;;;;;4946845;29;20051;-96
2023/12/14 10:03:18;;;;;;;26.35;12.73;;;7.90;99.90;;;;;;4947703;29;20053;-94
2023/12/14 10:05:44;;;;;;;33.63;12.45;;;7.90;99.90;;;;;;4947236;29;20032;-96
2023/12/14 10:08:09;;;;;;;29.17;14.48;;;7.90;99.90;;;;;;4945246;29;20459;-95
2023/12/14 10:10:41;;;;;;;26.60;11.55;;;7.90;99.90;;;;;;4941975;29;20047;-95
2023/12/14 10:13:07;;;;;;;29.75;13.27;;;7.90;99.90;;;;;;4947911;29;20024;-95
2023/12/14 10:15:44;;;;;;;28.88;13.10;;;8.00;99.90;;;;;;4949292;29;20030;-93
2023/12/14 10:18:10;;;;;;;26.50;11.80;;;8.00;99.90;;;;;;4942238;29;20024;-94
2023/12/14 10:20:38;;;;;;;30.52;12.68;;;8.10;99.90;;;;;;4936657;29;20032;-95
2023/12/14 10:23:15;;;;;;;26.13;11.60;;;8.20;99.90;;;;;;4952529;29;20058;-95
2023/12/14 10:25:42;;;;;;;27.08;12.80;;;8.20;99.90;;;;;;4954001;29;20525;-94
2023/12/14 10:28:08;;;;;;;31.10;11.30;;;8.30;99.90;;;;;;4948283;29;20032;-95
2023/12/14 10:30:34;;;;;;;31.75;13.80;;;8.20;99.90;;;;;;4941908;29;20020;-95
2023/12/14 10:33:00;;;;;;;26.52;12.43;;;8.30;99.90;;;;;;4950506;29;20112;-95
2023/12/14 10:35:27;;;;;;;26.38;12.55;;;8.30;99.90;;;;;;4953003;29;20027;-96
2023/12/14 10:37:52;;;;;;;25.85;12.10;;;8.30;99.90;;;;;;4951912;29;20095;-94
2023/12/14 10:40:18;;;;;;;29.75;12.50;;;8.40;99.90;;;;;;4947248;29;20087;-95
2023/12/14 10:42:45;;;;;;;26.00;13.80;;;8.40;99.90;;;;;;4943703;29;20038;-95
2023/12/14 10:45:13;;;;;;;30.15;13.82;;;8.60;99.90;;;;;;4941331;29;20040;-95
2023/12/14 10:47:44;;;;;;;24.77;11.90;;;8.60;99.90;;;;;;4954491;29;20039;-95
2023/12/14 10:50:11;;;;;;;28.17;13.20;;;8.60;99.90;;;;;;4955138;29;20023;-95
2023/12/14 10:52:41;;;;;;;32.13;13.77;;;8.50;99.90;;;;;;4949675;29;20028;-96
2023/12/14 10:55:21;;;;;;;29.05;12.55;;;8.60;99.90;;;;;;4943901;29;20023;-95
2023/12/14 10:57:47;;;;;;;27.20;13.07;;;8.60;99.90;;;;;;4949352;29;20032;-94
2023/12/14 11:00:15;;;;;;;26.92;13.57;;;8.50;99.90;;;;;;4949844;29;20119;-95
2023/12/14 11:02:44;;;;;;;28.17;14.02;;;8.50;99.90;;;;;;4949252;29;20032;-94
2023/12/14 11:05:15;;;;;;;31.38;16.23;;;8.40;99.90;;;;;;4950290;29;20414;-94
2023/12/14 11:07:54;;;;;;;33.05;13.95;;;8.40;99.90;;;;;;4949534;29;20062;-94
2023/12/14 11:10:24;;;;;;;30.08;14.25;;;8.50;99.90;;;;;;4937528;29;20487;-95
2023/12/14 11:12:54;;;;;;;34.30;15.68;;;8.50;99.90;;;;;;4950076;29;20028;-94
2023/12/14 11:15:28;;;;;;;34.88;15.48;;;8.50;99.90;;;;;;4939111;29;20031;-95
2023/12/14 11:18:09;;;;;;;32.17;14.68;;;8.40;99.90;;;;;;4942861;29;20038;-95
2023/12/14 11:20:59;;;;;;;37.13;15.32;;;8.40;99.90;;;;;;4950386;29;20043;-95
2023/12/14 11:23:24;;;;;;;204.43;96.97;;;8.40;99.90;;;;;;4950434;29;20103;-96
2023/12/14 11:25:56;;;;;;;42.70;20.15;;;8.40;99.90;;;;;;4953503;29;20023;-93
2023/12/14 11:28:22;;;;;;;35.78;15.20;;;8.40;99.90;;;;;;4957438;29;20104;-95
2023/12/14 11:30:48;;;;;;;34.22;14.40;;;8.40;99.90;;;;;;4956326;29;20016;-94
2023/12/14 11:33:20;;;;;;;31.65;14.38;;;8.50;99.90;;;;;;4955805;28;20016;-94
2023/12/14 11:35:45;;;;;;;35.38;15.18;;;8.50;99.90;;;;;;5050387;23;20106;-95
2023/12/14 11:38:12;;;;;;;31.05;14.35;;;8.40;99.90;;;;;;5096337;23;20051;-95
2023/12/14 11:41:03;;;;;;;35.47;16.83;;;8.50;99.90;;;;;;4964714;28;20029;-94
2023/12/14 11:46:14;;;;;;;30.05;14.30;;;8.50;99.90;;;;;;5027513;23;20137;-96
2023/12/14 11:51:16;;;;;;;36.15;16.88;;;8.50;99.90;;;;;;5377149;23;20070;-95
2023/12/14 11:53:50;;;;;;;29.70;14.65;;;8.50;99.90;;;;;;5175819;23;21385;-94
2023/12/14 11:58:55;;;;;;;40.00;15.18;;;8.40;99.90;;;;;;5023585;23;20081;-95
2023/12/14 12:01:25;;;;;;;42.47;20.45;;;8.40;99.90;;;;;;4998500;28;20026;-95
2023/12/14 12:03:53;;;;;;;36.70;18.52;;;8.40;99.90;;;;;;4998721;28;20015;-95
2023/12/14 12:06:34;;;;;;;37.60;16.10;;;8.40;99.90;;;;;;4998376;28;20031;-95
2023/12/14 12:09:00;;;;;;;36.83;17.30;;;8.40;99.90;;;;;;4993128;28;20035;-96
2023/12/14 12:11:31;;;;;;;34.85;16.80;;;8.40;99.90;;;;;;4970390;28;20027;-95
2023/12/14 12:14:04;;;;;;;33.20;16.27;;;8.40;99.90;;;;;;4959739;28;20095;-96
2023/12/14 12:16:31;;;;;;;34.60;15.27;;;8.50;99.90;;;;;;4959271;28;20096;-94
2023/12/14 12:22:05;;;;;;;33.85;16.50;;;8.40;99.90;;;;;;4732363;23;20036;-94
2023/12/14 12:24:31;;;;;;;31.65;14.27;;;8.50;99.90;;;;;;4943230;29;20027;-93
2023/12/14 12:26:57;;;;;;;29.40;13.65;;;8.50;99.90;;;;;;4943709;29;20023;-94
2023/12/14 12:29:26;;;;;;;42.22;26.33;;;8.50;99.90;;;;;;4958538;28;20023;-95
2023/12/14 12:31:55;;;;;;;26.80;13.02;;;8.40;99.90;;;;;;4942132;29;20047;-95
2023/12/14 12:34:22;;;;;;;25.15;12.82;;;8.40;99.90;;;;;;4942053;29;20098;-95
2023/12/14 12:36:48;;;;;;;26.50;10.85;;;8.40;99.90;;;;;;4958363;28;20024;-95
2023/12/14 12:39:15;;;;;;;25.88;10.73;;;8.40;99.90;;;;;;4958436;28;20023;-94
2023/12/14 12:41:50;;;;;;;24.70;10.02;;;8.40;99.90;;;;;;4957884;28;20066;-94
2023/12/14 12:44:16;;;;;;;21.63;11.75;;;8.40;99.90;;;;;;4942412;29;20008;-95
2023/12/14 12:46:42;;;;;;;29.95;13.18;;;8.40;99.90;;;;;;4958568;28;20091;-94
2023/12/14 12:49:08;;;;;;;30.38;14.45;;;8.50;99.90;;;;;;4958694;28;20054;-96
2023/12/14 12:51:40;;;;;;;26.88;13.00;;;8.40;99.90;;;;;;4956237;28;20035;-96
2023/12/14 12:54:06;;;;;;;22.08;10.27;;;8.50;99.90;;;;;;4959420;28;20008;-95
2023/12/14 12:56:32;;;;;;;19.88;9.07;;;8.40;99.90;;;;;;4942644;29;20050;-95
2023/12/14 12:59:07;;;;;;;21.50;9.98;;;8.40;99.90;;;;;;4938619;29;20016;-95